createdAt,value
2024-01-26T00:01:28.657Z,3.55
2024-01-26T00:04:34.734Z,3.50
2024-01-26T00:07:40.709Z,3.42
2024-01-26T00:10:46.482Z,3.37
2024-01-26T00:13:52.149Z,3.30
2024-01-26T00:16:57.823Z,3.21
2024-01-26T00:20:03.492Z,3.12
2024-01-26T00:23:09.176Z,3.04
2024-01-26T00:26:16.117Z,2.97
2024-01-26T00:29:22.320Z,2.95
2024-01-26T00:32:27.986Z,2.96
2024-01-26T00:35:33.842Z,2.99
2024-01-26T00:38:39.478Z,2.98
2024-01-26T00:41:45.100Z,2.92
2024-01-26T00:44:50.707Z,2.87
2024-01-26T00:47:56.409Z,2.80
2024-01-26T00:51:02.842Z,2.74
2024-01-26T00:54:08.599Z,2.69
2024-01-26T00:57:15.323Z,2.65
2024-01-26T01:00:21.585Z,2.62
2024-01-26T01:03:27.491Z,2.61
2024-01-26T01:06:33.307Z,2.61
2024-01-26T01:09:41.558Z,2.60
2024-01-26T01:12:47.877Z,2.60
2024-01-26T01:15:53.625Z,2.59
2024-01-26T01:18:59.392Z,2.58
2024-01-26T01:22:05.365Z,2.54
2024-01-26T01:25:13.336Z,2.47
2024-01-26T01:28:19.052Z,2.38
2024-01-26T01:31:24.716Z,2.29
2024-01-26T01:34:30.701Z,2.26
2024-01-26T01:37:36.457Z,2.26
2024-01-26T01:40:42.221Z,2.28
2024-01-26T01:43:57.181Z,2.28
2024-01-26T01:47:02.821Z,2.24
2024-01-26T01:50:10.001Z,2.24
2024-01-26T01:53:17.174Z,2.28
2024-01-26T01:56:25.630Z,2.31
2024-01-26T01:59:32.401Z,2.36
2024-01-26T02:02:38.499Z,2.40
2024-01-26T02:05:45.520Z,2.47
2024-01-26T02:08:51.232Z,2.52
2024-01-26T02:11:57.499Z,2.54
2024-01-26T02:15:01.781Z,2.54
2024-01-26T02:18:08.349Z,2.54
2024-01-26T02:21:14.031Z,2.57
2024-01-26T02:24:19.991Z,2.57
2024-01-26T02:27:25.986Z,2.60
2024-01-26T02:30:34.984Z,2.65
2024-01-26T02:33:40.798Z,2.68
2024-01-26T02:36:46.588Z,2.71
2024-01-26T02:39:52.412Z,2.75
2024-01-26T02:42:58.022Z,2.78
2024-01-26T02:46:09.995Z,2.77
2024-01-26T02:49:16.077Z,2.74
2024-01-26T02:52:22.277Z,2.76
2024-01-26T02:55:27.914Z,2.79
2024-01-26T02:58:33.586Z,2.77
2024-01-26T03:01:39.252Z,2.73
2024-01-26T03:04:44.850Z,2.72
2024-01-26T03:07:50.520Z,2.71
2024-01-26T03:10:56.132Z,2.73
2024-01-26T03:14:01.781Z,2.76
2024-01-26T03:17:07.781Z,2.77
2024-01-26T03:20:15.166Z,2.76
2024-01-26T03:23:20.900Z,2.75
2024-01-26T03:26:26.566Z,2.72
2024-01-26T03:29:32.232Z,2.71
2024-01-26T03:32:38.086Z,2.70
2024-01-26T03:35:43.809Z,2.70
2024-01-26T03:38:49.535Z,2.70
2024-01-26T03:41:55.614Z,2.70
2024-01-26T03:45:02.054Z,2.70
2024-01-26T03:48:07.211Z,2.67
2024-01-26T03:51:13.456Z,2.66
2024-01-26T03:54:17.715Z,2.65
2024-01-26T03:57:24.127Z,2.64
2024-01-26T04:00:29.808Z,2.62
2024-01-26T04:03:35.622Z,2.61
2024-01-26T04:06:43.813Z,2.64
2024-01-26T04:09:49.485Z,2.64
2024-01-26T04:12:55.089Z,2.62
2024-01-26T04:16:00.770Z,2.60
2024-01-26T04:19:06.563Z,2.58
2024-01-26T04:22:12.480Z,2.59
2024-01-26T04:25:18.296Z,2.58
2024-01-26T04:28:23.964Z,2.59
2024-01-26T04:31:29.847Z,2.57
2024-01-26T04:34:39.101Z,2.58
2024-01-26T04:37:45.173Z,2.62
2024-01-26T04:40:50.849Z,2.67
2024-01-26T04:43:56.735Z,2.71
2024-01-26T04:47:02.390Z,2.74
2024-01-26T04:50:09.090Z,2.75
2024-01-26T04:53:16.629Z,2.77
2024-01-26T04:56:22.997Z,2.77
2024-01-26T04:59:27.436Z,2.75
2024-01-26T05:02:33.134Z,2.74
2024-01-26T05:05:38.910Z,2.74
2024-01-26T05:08:45.257Z,2.77
2024-01-26T05:11:51.254Z,2.76
2024-01-26T05:14:56.948Z,2.79
2024-01-26T05:18:02.795Z,2.82
2024-01-26T05:21:09.456Z,2.86
2024-01-26T05:24:15.241Z,2.89
2024-01-26T05:27:20.913Z,2.90
2024-01-26T05:30:27.652Z,2.86
2024-01-26T05:33:33.619Z,2.81
2024-01-26T05:36:44.300Z,2.75
2024-01-26T05:39:50.070Z,2.70
2024-01-26T05:42:55.691Z,2.62
2024-01-26T05:46:01.338Z,2.58
2024-01-26T05:49:09.354Z,2.58
2024-01-26T05:52:15.836Z,2.59
2024-01-26T05:55:21.621Z,2.64
2024-01-26T05:58:27.466Z,2.71
2024-01-26T06:01:33.169Z,2.78
2024-01-26T06:04:38.803Z,2.84
2024-01-26T06:07:44.476Z,2.87
2024-01-26T06:10:50.197Z,2.90
2024-01-26T06:13:55.810Z,2.93
2024-01-26T06:17:01.481Z,2.99
2024-01-26T06:20:09.178Z,3.03
2024-01-26T06:23:14.896Z,3.07
2024-01-26T06:26:21.400Z,3.07
2024-01-26T06:29:27.156Z,3.05
2024-01-26T06:32:32.947Z,3.05
2024-01-26T06:35:39.454Z,3.06
2024-01-26T06:38:45.297Z,3.08
2024-01-26T06:41:51.929Z,3.10
2024-01-26T06:44:57.893Z,3.12
2024-01-26T06:48:03.828Z,3.11
2024-01-26T06:51:10.143Z,3.13
2024-01-26T06:54:15.962Z,3.17
2024-01-26T06:57:22.276Z,3.20
2024-01-26T07:00:28.824Z,3.23
2024-01-26T07:03:34.620Z,3.25
2024-01-26T07:06:40.503Z,3.26
2024-01-26T07:09:46.366Z,3.24
2024-01-26T07:12:52.088Z,3.24
2024-01-26T07:15:57.735Z,3.27
2024-01-26T07:19:03.471Z,3.29
2024-01-26T07:22:09.328Z,3.31
2024-01-26T07:25:20.300Z,3.30
2024-01-26T07:28:26.084Z,3.26
2024-01-26T07:31:31.753Z,3.25
2024-01-26T07:34:37.622Z,3.26
2024-01-26T07:37:43.409Z,3.28
2024-01-26T07:40:49.012Z,3.30
2024-01-26T07:43:54.660Z,3.33
2024-01-26T07:47:00.298Z,3.34
2024-01-26T07:50:07.164Z,3.34
2024-01-26T07:53:13.799Z,3.33
2024-01-26T07:56:19.555Z,3.30
2024-01-26T07:59:25.320Z,3.26
2024-01-26T08:02:31.981Z,3.25
2024-01-26T08:05:38.064Z,3.26
2024-01-26T08:08:44.092Z,3.26
2024-01-26T08:11:50.840Z,3.29
2024-01-26T08:15:01.643Z,3.32
2024-01-26T08:18:09.198Z,3.33
2024-01-26T08:21:15.059Z,3.33
2024-01-26T08:24:21.280Z,3.34
2024-01-26T08:27:27.312Z,3.35
2024-01-26T08:30:33.254Z,3.35
2024-01-26T08:33:39.239Z,3.36
2024-01-26T08:36:45.116Z,3.39
2024-01-26T08:39:51.080Z,3.40
2024-01-26T08:42:56.735Z,3.40
2024-01-26T08:46:02.388Z,3.42
2024-01-26T08:49:08.821Z,3.44
2024-01-26T08:52:14.606Z,3.45
2024-01-26T08:55:20.538Z,3.46
2024-01-26T08:58:26.419Z,3.49
2024-01-26T09:01:32.072Z,3.49
2024-01-26T09:04:38.285Z,3.48
2024-01-26T09:07:42.660Z,3.46
2024-01-26T09:10:48.455Z,3.44
2024-01-26T09:13:54.144Z,3.37
2024-01-26T09:17:02.057Z,3.30
2024-01-26T09:20:10.682Z,3.28
2024-01-26T09:23:16.663Z,3.31
2024-01-26T09:26:22.852Z,3.37
2024-01-26T09:29:27.781Z,3.40
2024-01-26T09:32:35.488Z,3.38
2024-01-26T09:35:41.442Z,3.34
2024-01-26T09:38:47.171Z,3.37
2024-01-26T09:41:52.993Z,3.44
2024-01-26T09:44:59.108Z,3.52
2024-01-26T09:48:08.369Z,3.59
2024-01-26T09:51:14.573Z,3.67
2024-01-26T09:54:22.822Z,3.76
2024-01-26T09:57:29.904Z,3.84
2024-01-26T10:00:35.767Z,3.92
2024-01-26T10:03:41.577Z,4.01
2024-01-26T10:06:49.700Z,4.09
2024-01-26T10:09:55.742Z,4.18
2024-01-26T10:13:01.866Z,4.21
2024-01-26T10:16:13.771Z,4.18
2024-01-26T10:19:27.196Z,4.18
2024-01-26T10:22:33.407Z,4.26
2024-01-26T10:25:41.423Z,4.33
2024-01-26T10:28:49.758Z,4.31
2024-01-26T10:31:55.716Z,4.31
2024-01-26T10:35:04.066Z,4.33
2024-01-26T10:38:12.441Z,4.31
2024-01-26T10:41:22.888Z,4.28
2024-01-26T10:44:29.159Z,4.23
2024-01-26T10:47:36.751Z,4.15
2024-01-26T10:50:43.499Z,4.06
2024-01-26T10:53:50.197Z,4.04
2024-01-26T10:56:56.423Z,4.04
2024-01-26T11:00:00.977Z,4.03
2024-01-26T11:03:07.801Z,3.99
2024-01-26T11:06:15.216Z,3.96
2024-01-26T11:09:22.331Z,3.97
2024-01-26T11:12:31.283Z,3.99
2024-01-26T11:15:38.662Z,4.05
2024-01-26T11:18:44.381Z,4.10
2024-01-26T11:21:50.821Z,4.15
2024-01-26T11:24:56.668Z,4.18
2024-01-26T11:28:01.544Z,4.17
2024-01-26T11:31:08.126Z,4.19
2024-01-26T11:34:23.288Z,4.20
2024-01-26T11:37:31.007Z,4.19
2024-01-26T11:40:37.477Z,4.21
2024-01-26T11:43:47.646Z,4.23
2024-01-26T11:46:54.055Z,4.19
2024-01-26T11:50:00.071Z,4.15
2024-01-26T11:53:06.740Z,4.18
2024-01-26T11:56:13.077Z,4.20
2024-01-26T11:59:19.008Z,4.20
2024-01-26T12:02:24.778Z,4.18
2024-01-26T12:05:31.405Z,4.20
2024-01-26T12:08:37.490Z,4.24
2024-01-26T12:11:43.890Z,4.30
2024-01-26T12:14:50.198Z,4.33
2024-01-26T12:17:54.376Z,4.33
2024-01-26T12:21:01.702Z,4.35
2024-01-26T12:24:15.833Z,4.37
2024-01-26T12:27:22.360Z,4.36
2024-01-26T12:30:27.468Z,4.39
2024-01-26T12:33:36.452Z,4.41
2024-01-26T12:36:42.548Z,4.44
2024-01-26T12:40:38.132Z,4.47
2024-01-26T12:43:45.114Z,4.44
2024-01-26T12:46:50.961Z,4.45
2024-01-26T12:49:56.832Z,4.48
2024-01-26T12:53:02.862Z,4.52
2024-01-26T12:56:10.057Z,4.56
2024-01-26T12:59:16.009Z,4.58
2024-01-26T13:02:21.882Z,4.57
2024-01-26T13:05:27.711Z,4.54
2024-01-26T13:08:33.408Z,4.55
2024-01-26T13:11:40.491Z,4.54
2024-01-26T13:14:48.099Z,4.53
2024-01-26T13:17:54.034Z,4.51
2024-01-26T13:21:00.261Z,4.50
2024-01-26T13:24:06.918Z,4.49
2024-01-26T13:27:14.357Z,4.50
2024-01-26T13:30:25.245Z,4.56
2024-01-26T13:33:32.339Z,4.64
2024-01-26T13:36:38.096Z,4.69
2024-01-26T13:39:43.747Z,4.72
2024-01-26T13:42:50.214Z,4.78
2024-01-26T13:45:55.963Z,4.88
2024-01-26T13:49:01.878Z,4.99
2024-01-26T13:52:09.584Z,5.08
2024-01-26T13:55:16.501Z,5.12
2024-01-26T13:58:22.405Z,5.14
2024-01-26T14:01:28.271Z,5.13
2024-01-26T14:04:34.106Z,5.09
2024-01-26T14:07:40.061Z,5.05
2024-01-26T14:10:45.902Z,5.02
2024-01-26T14:13:51.782Z,5.00
2024-01-26T14:16:58.791Z,4.98
2024-01-26T14:20:04.960Z,4.94
2024-01-26T14:23:10.668Z,4.91
2024-01-26T14:26:16.333Z,4.87
2024-01-26T14:29:22.294Z,4.84
2024-01-26T14:32:28.289Z,4.83
2024-01-26T14:35:34.133Z,4.80
2024-01-26T14:38:39.886Z,4.77
2024-01-26T14:41:45.567Z,4.72
2024-01-26T14:44:51.439Z,4.66
2024-01-26T14:47:57.128Z,4.53
2024-01-26T14:51:02.902Z,4.46
2024-01-26T14:54:08.657Z,4.41
2024-01-26T14:57:14.437Z,4.35
2024-01-26T15:00:22.748Z,4.29
2024-01-26T15:03:29.941Z,4.24
2024-01-26T15:06:36.267Z,4.21
2024-01-26T15:09:41.998Z,4.17
2024-01-26T15:12:47.730Z,4.13
2024-01-26T15:15:53.933Z,4.08
2024-01-26T15:22:03.632Z,3.92
2024-01-26T15:25:10.789Z,3.82
2024-01-26T15:28:20.470Z,3.71
2024-01-26T15:31:26.272Z,3.61
2024-01-26T15:34:32.473Z,3.53
2024-01-26T15:37:37.423Z,3.44
2024-01-26T15:40:43.981Z,3.36
2024-01-26T15:43:49.635Z,3.30
2024-01-26T15:46:55.366Z,3.19
2024-01-26T15:50:01.196Z,3.10
2024-01-26T15:53:07.568Z,3.03
2024-01-26T15:56:13.566Z,2.97
2024-01-26T15:59:19.189Z,2.91
2024-01-26T16:02:24.827Z,2.85
2024-01-26T16:05:30.475Z,2.79
2024-01-26T16:08:39.371Z,2.75
2024-01-26T16:11:45.093Z,2.71
2024-01-26T16:14:50.847Z,2.63
2024-01-26T16:17:56.815Z,2.55
2024-01-26T16:21:02.784Z,2.51
2024-01-26T16:24:09.825Z,2.44
2024-01-26T16:27:15.620Z,2.38
2024-01-26T16:30:21.936Z,2.30
2024-01-26T16:33:27.891Z,2.21
2024-01-26T16:36:34.717Z,2.17
2024-01-26T16:39:40.565Z,2.12
2024-01-26T16:42:46.359Z,2.06
2024-01-26T16:45:52.060Z,2.00
2024-01-26T16:48:59.830Z,1.92
2024-01-26T16:52:06.021Z,1.81
2024-01-26T16:55:12.594Z,1.73
2024-01-26T16:58:18.294Z,1.69
2024-01-26T17:01:24.392Z,1.60
2024-01-26T17:04:30.045Z,1.49
2024-01-26T17:07:36.452Z,1.39
2024-01-26T17:10:42.206Z,1.41
2024-01-26T17:13:47.842Z,1.48
2024-01-26T17:16:54.592Z,1.49
2024-01-26T17:20:00.322Z,1.53
2024-01-26T17:23:06.399Z,1.56
2024-01-26T17:26:12.045Z,1.58
2024-01-26T17:29:17.673Z,1.62
2024-01-26T17:32:23.358Z,1.63
2024-01-26T17:35:32.026Z,1.64
2024-01-26T17:38:38.681Z,1.58
2024-01-26T17:41:43.375Z,1.55
2024-01-26T17:44:50.503Z,1.59
2024-01-26T17:47:56.317Z,1.58
2024-01-26T17:51:02.241Z,1.55
2024-01-26T17:54:08.551Z,1.53
2024-01-26T17:57:12.730Z,1.46
2024-01-26T18:00:20.014Z,1.41
2024-01-26T18:03:25.813Z,1.32
2024-01-26T18:06:31.802Z,1.31
2024-01-26T18:09:37.591Z,1.34
2024-01-26T18:12:43.350Z,1.35
2024-01-26T18:15:49.169Z,1.36
2024-01-26T18:18:55.200Z,1.35
2024-01-26T18:22:01.114Z,1.38
2024-01-26T18:25:08.611Z,1.41
2024-01-26T18:28:14.396Z,1.47
2024-01-26T18:31:20.950Z,1.52
2024-01-26T18:34:27.031Z,1.50
2024-01-26T18:37:32.847Z,1.45
2024-01-26T18:40:38.494Z,1.39
2024-01-26T18:43:44.126Z,1.38
2024-01-26T18:46:49.919Z,1.43
2024-01-26T18:49:55.708Z,1.49
2024-01-26T18:53:01.525Z,1.54
2024-01-26T18:56:08.897Z,1.52
2024-01-26T18:59:17.685Z,1.51
2024-01-26T19:02:23.626Z,1.53
2024-01-26T19:05:29.570Z,1.57
2024-01-26T19:08:35.588Z,1.63
2024-01-26T19:11:44.669Z,1.65
2024-01-26T19:14:50.382Z,1.61
2024-01-26T19:17:56.223Z,1.59
2024-01-26T19:21:02.215Z,1.64
2024-01-26T19:24:09.127Z,1.71
2024-01-26T19:27:14.927Z,1.75
2024-01-26T19:30:21.051Z,1.74
2024-01-26T19:33:26.999Z,1.70
2024-01-26T19:36:32.855Z,1.68
2024-01-26T19:39:38.536Z,1.64
2024-01-26T19:42:44.176Z,1.58
2024-01-26T19:45:49.785Z,1.54
2024-01-26T19:48:56.038Z,1.56
2024-01-26T19:52:01.809Z,1.62
2024-01-26T19:55:09.646Z,1.68
2024-01-26T19:58:15.410Z,1.73
2024-01-26T20:01:21.246Z,1.75
2024-01-26T20:04:27.208Z,1.80
2024-01-26T20:07:33.270Z,1.85
2024-01-26T20:10:40.515Z,1.90
2024-01-26T20:13:46.586Z,1.91
2024-01-26T20:16:52.220Z,1.88
2024-01-26T20:19:59.795Z,1.86
2024-01-26T20:23:05.881Z,1.88
2024-01-26T20:26:13.204Z,1.90
2024-01-26T20:29:18.892Z,1.93
2024-01-26T20:32:27.354Z,1.94
2024-01-26T20:35:33.166Z,2.00
2024-01-26T20:38:39.102Z,2.02
2024-01-26T20:41:46.753Z,2.05
2024-01-26T20:44:52.576Z,2.05
2024-01-26T20:47:59.118Z,2.07
2024-01-26T20:51:05.034Z,2.08
2024-01-26T20:54:11.239Z,2.07
2024-01-26T20:57:18.243Z,2.10
2024-01-26T21:00:26.326Z,2.13
2024-01-26T21:03:32.466Z,2.17
2024-01-26T21:06:43.019Z,2.20
2024-01-26T21:09:48.800Z,2.19
2024-01-26T21:12:55.406Z,2.19
2024-01-26T21:16:01.088Z,2.19
2024-01-26T21:19:06.912Z,2.25
2024-01-26T21:22:12.698Z,2.35
2024-01-26T21:25:18.801Z,2.44
2024-01-26T21:28:25.461Z,2.54
2024-01-26T21:31:35.477Z,2.63
2024-01-26T21:34:41.357Z,2.72
2024-01-26T21:37:48.605Z,2.78
2024-01-26T21:40:54.558Z,2.87
2024-01-26T21:44:02.187Z,3.01
2024-01-26T21:47:08.747Z,3.14
2024-01-26T21:50:15.665Z,3.34
2024-01-26T21:53:21.582Z,3.53
2024-01-26T21:56:27.720Z,3.75
2024-01-26T21:59:33.670Z,3.92
2024-01-26T22:02:39.427Z,4.06
2024-01-26T22:05:45.474Z,4.17
2024-01-26T22:08:51.372Z,4.27
2024-01-26T22:11:57.253Z,4.35
2024-01-26T22:15:04.589Z,4.41
2024-01-26T22:18:10.793Z,4.46
2024-01-26T22:21:14.970Z,4.49
2024-01-26T22:24:20.640Z,4.54
2024-01-26T22:27:26.586Z,4.58
2024-01-26T22:30:32.841Z,4.62
2024-01-26T22:33:37.137Z,4.67
2024-01-26T22:36:42.966Z,4.72
2024-01-26T22:39:49.296Z,4.76
2024-01-26T22:42:54.943Z,4.79
2024-01-26T22:46:01.390Z,4.80
2024-01-26T22:49:07.371Z,4.82
2024-01-26T22:52:12.095Z,4.84
2024-01-26T22:55:19.555Z,4.85
2024-01-26T22:58:25.812Z,4.86
2024-01-26T23:01:31.987Z,4.85
2024-01-26T23:04:36.047Z,4.84
2024-01-26T23:07:41.635Z,4.81
2024-01-26T23:10:47.275Z,4.79
2024-01-26T23:13:53.385Z,4.78
2024-01-26T23:16:58.993Z,4.76
2024-01-26T23:20:06.284Z,4.75
2024-01-26T23:23:11.939Z,4.74
2024-01-26T23:26:17.680Z,4.72
2024-01-26T23:29:24.639Z,4.72
2024-01-26T23:32:30.829Z,4.72
2024-01-26T23:35:37.015Z,4.71
2024-01-26T23:38:43.069Z,4.71
2024-01-26T23:41:50.234Z,4.71
2024-01-26T23:44:57.313Z,4.71
2024-01-26T23:48:04.264Z,4.72
2024-01-26T23:51:10.209Z,4.72
2024-01-26T23:54:16.830Z,4.72
2024-01-26T23:57:22.566Z,4.74
